createdAt,value
2022-09-26T00:01:51.852Z,98680.00
2022-09-26T00:04:42.540Z,98685.00
2022-09-26T00:07:24.251Z,98688.00
2022-09-26T00:09:55.109Z,98691.00
2022-09-26T00:12:48.837Z,98695.00
2022-09-26T00:15:42.593Z,98705.00
2022-09-26T00:18:24.113Z,98701.00
2022-09-26T00:21:06.436Z,98710.00
2022-09-26T00:24:12.962Z,98711.00
2022-09-26T00:27:06.668Z,98722.00
2022-09-26T00:30:03.000Z,98730.00
2022-09-26T00:32:56.657Z,98734.00
2022-09-26T00:36:02.510Z,98727.00
2022-09-26T00:39:20.630Z,98737.00
2022-09-26T00:42:13.944Z,98737.00
2022-09-26T00:45:03.299Z,98738.00
2022-09-26T00:48:04.322Z,98752.00
2022-09-26T00:51:22.380Z,98762.00
2022-09-26T00:54:15.767Z,98761.00
2022-09-26T00:57:22.417Z,98762.00
2022-09-26T01:00:21.981Z,98767.00
2022-09-26T01:03:27.963Z,98760.00
2022-09-26T01:06:22.109Z,98754.00
2022-09-26T01:09:17.037Z,98762.00
2022-09-26T01:12:11.316Z,98757.00
2022-09-26T01:14:55.372Z,98763.00
2022-09-26T01:17:52.067Z,98772.00
2022-09-26T01:20:56.559Z,98767.00
2022-09-26T01:24:14.649Z,98770.00
2022-09-26T01:27:20.194Z,98775.00
2022-09-26T01:30:33.674Z,98771.00
2022-09-26T01:33:59.292Z,98778.00
2022-09-26T01:36:59.538Z,98767.00
2022-09-26T01:40:07.179Z,98786.00
2022-09-26T01:43:13.449Z,98791.00
2022-09-26T01:46:19.363Z,98782.00
2022-09-26T01:49:19.611Z,98780.00
2022-09-26T01:52:51.356Z,98774.00
2022-09-26T01:55:48.561Z,98769.00
2022-09-26T01:58:48.505Z,98776.00
2022-09-26T02:02:06.800Z,98767.00
2022-09-26T02:04:42.639Z,98765.00
2022-09-26T02:07:51.889Z,98762.00
2022-09-26T02:10:52.781Z,98769.00
2022-09-26T02:14:04.491Z,98775.00
2022-09-26T02:17:06.568Z,98770.00
2022-09-26T02:20:20.945Z,98775.00
2022-09-26T02:23:14.585Z,98774.00
2022-09-26T02:25:46.168Z,98768.00
2022-09-26T02:28:52.149Z,98767.00
2022-09-26T02:31:56.345Z,98774.00
2022-09-26T02:34:50.131Z,98770.00
2022-09-26T02:38:01.740Z,98770.00
2022-09-26T02:41:08.380Z,98771.00
2022-09-26T02:44:17.523Z,98766.00
2022-09-26T02:47:27.448Z,98768.00
2022-09-26T02:50:48.220Z,98771.00
2022-09-26T02:53:58.254Z,98760.00
2022-09-26T02:57:18.565Z,98762.00
2022-09-26T03:00:32.756Z,98760.00
2022-09-26T03:03:51.700Z,98767.00
2022-09-26T03:06:50.703Z,98761.00
2022-09-26T03:09:44.851Z,98754.00
2022-09-26T03:12:15.420Z,98753.00
2022-09-26T03:14:47.134Z,98762.00
2022-09-26T03:17:42.985Z,98759.00
2022-09-26T03:20:51.801Z,98760.00
2022-09-26T03:23:42.769Z,98759.00
2022-09-26T03:26:49.427Z,98760.00
2022-09-26T03:30:11.918Z,98760.00
2022-09-26T03:33:09.843Z,98753.00
2022-09-26T03:35:39.857Z,98744.00
2022-09-26T03:38:20.014Z,98755.00
2022-09-26T03:40:49.653Z,98755.00
2022-09-26T03:43:18.977Z,98740.00
2022-09-26T03:45:48.314Z,98748.00
2022-09-26T03:48:17.851Z,98744.00
2022-09-26T03:50:47.201Z,98739.00
2022-09-26T03:53:16.928Z,98733.00
2022-09-26T03:55:47.374Z,98733.00
2022-09-26T03:58:16.690Z,98731.00
2022-09-26T04:00:45.922Z,98735.00
2022-09-26T04:03:15.139Z,98728.00
2022-09-26T04:05:45.107Z,98728.00
2022-09-26T04:08:14.377Z,98723.00
2022-09-26T04:10:43.664Z,98713.00
2022-09-26T04:13:23.532Z,98712.00
2022-09-26T04:16:03.293Z,98713.00
2022-09-26T04:18:33.168Z,98712.00
2022-09-26T04:21:15.240Z,98712.00
2022-09-26T04:23:46.385Z,98706.00
2022-09-26T04:26:23.675Z,98699.00
2022-09-26T04:28:56.734Z,98694.00
2022-09-26T04:31:29.000Z,98692.00
2022-09-26T04:33:58.589Z,98694.00
2022-09-26T04:36:27.755Z,98687.00
2022-09-26T04:38:59.214Z,98681.00
2022-09-26T04:41:31.346Z,98683.00
2022-09-26T04:44:02.939Z,98669.00
2022-09-26T04:46:32.480Z,98663.00
2022-09-26T04:49:03.716Z,98662.00
2022-09-26T04:51:34.025Z,98659.00
2022-09-26T04:54:03.384Z,98656.00
2022-09-26T04:56:33.705Z,98650.00
2022-09-26T04:59:05.365Z,98640.00
2022-09-26T05:01:34.621Z,98636.00
2022-09-26T05:04:05.117Z,98635.00
2022-09-26T05:06:34.749Z,98625.00
2022-09-26T05:09:05.398Z,98621.00
2022-09-26T05:11:34.765Z,98613.00
2022-09-26T05:14:05.113Z,98612.00
2022-09-26T05:16:34.872Z,98607.00
2022-09-26T05:19:04.085Z,98599.00
2022-09-26T05:21:33.253Z,98594.00
2022-09-26T05:24:14.897Z,98592.00
2022-09-26T05:26:54.016Z,98580.00
2022-09-26T05:29:23.279Z,98570.00
2022-09-26T05:31:55.102Z,98572.00
2022-09-26T05:34:27.149Z,98562.00
2022-09-26T05:36:57.601Z,98561.00
2022-09-26T05:39:42.267Z,98556.00
2022-09-26T05:42:11.892Z,98555.00
2022-09-26T05:44:41.169Z,98550.00
2022-09-26T05:47:10.424Z,98544.00
2022-09-26T05:49:39.862Z,98536.00
2022-09-26T05:52:09.169Z,98534.00
2022-09-26T05:54:38.323Z,98531.00
2022-09-26T05:57:07.671Z,98521.00
2022-09-26T05:59:36.747Z,98514.00
2022-09-26T06:02:07.940Z,98512.00
2022-09-26T06:04:37.279Z,98508.00
2022-09-26T06:07:22.118Z,98507.00
2022-09-26T06:09:54.334Z,98510.00
2022-09-26T06:12:23.526Z,98508.00
2022-09-26T06:14:54.235Z,98499.00
2022-09-26T06:17:23.301Z,98489.00
2022-09-26T06:19:52.492Z,98489.00
2022-09-26T06:22:21.972Z,98488.00
2022-09-26T06:24:51.298Z,98481.00
2022-09-26T06:27:20.875Z,98477.00
2022-09-26T06:29:50.389Z,98477.00
2022-09-26T06:32:19.645Z,98468.00
2022-09-26T06:34:48.800Z,98465.00
2022-09-26T06:37:17.965Z,98456.00
2022-09-26T06:39:47.223Z,98451.00
2022-09-26T06:42:16.413Z,98442.00
2022-09-26T06:44:45.751Z,98443.00
2022-09-26T06:47:15.105Z,98426.00
2022-09-26T06:49:46.342Z,98433.00
2022-09-26T06:52:15.636Z,98429.00
2022-09-26T06:54:44.766Z,98432.00
2022-09-26T06:57:15.317Z,98426.00
2022-09-26T06:59:45.348Z,98427.00
2022-09-26T07:02:16.472Z,98425.00
2022-09-26T07:04:45.753Z,98427.00
2022-09-26T07:07:15.021Z,98419.00
2022-09-26T07:09:44.339Z,98420.00
2022-09-26T07:12:16.255Z,98414.00
2022-09-26T07:14:48.862Z,98410.00
2022-09-26T07:17:22.880Z,98405.00
2022-09-26T07:19:54.318Z,98399.00
2022-09-26T07:22:23.529Z,98393.00
2022-09-26T07:24:52.940Z,98390.00
2022-09-26T07:27:22.265Z,98380.00
2022-09-26T07:29:51.546Z,98378.00
2022-09-26T07:32:21.149Z,98374.00
2022-09-26T07:34:50.705Z,98364.00
2022-09-26T07:37:20.193Z,98358.00
2022-09-26T07:39:53.597Z,98357.00
2022-09-26T07:42:24.364Z,98357.00
2022-09-26T07:45:21.878Z,98357.00
2022-09-26T07:47:55.100Z,98354.00
2022-09-26T07:50:24.835Z,98353.00
2022-09-26T07:52:53.986Z,98348.00
2022-09-26T07:55:28.327Z,98353.00
2022-09-26T07:57:59.005Z,98345.00
2022-09-26T08:00:31.402Z,98345.00
2022-09-26T08:03:05.923Z,98343.00
2022-09-26T08:05:35.279Z,98344.00
2022-09-26T08:08:05.988Z,98338.00
2022-09-26T08:10:36.445Z,98343.00
2022-09-26T08:13:05.723Z,98337.00
2022-09-26T08:15:34.856Z,98344.00
2022-09-26T08:18:05.196Z,98354.00
2022-09-26T08:20:35.066Z,98353.00
2022-09-26T08:23:05.374Z,98367.00
2022-09-26T08:25:34.534Z,98364.00
2022-09-26T08:28:07.306Z,98362.00
2022-09-26T08:30:37.115Z,98356.00
2022-09-26T08:33:06.871Z,98354.00
2022-09-26T08:35:39.725Z,98345.00
2022-09-26T08:38:10.601Z,98348.00
2022-09-26T08:41:22.548Z,98352.00
2022-09-26T08:44:31.230Z,98341.00
2022-09-26T08:47:40.775Z,98324.00
2022-09-26T08:50:41.561Z,98314.00
2022-09-26T08:53:34.519Z,98307.00
2022-09-26T08:56:18.456Z,98313.00
2022-09-26T08:58:56.455Z,98319.00
2022-09-26T09:01:32.329Z,98326.00
2022-09-26T09:04:39.565Z,98324.00
2022-09-26T09:07:25.804Z,98332.00
2022-09-26T09:10:02.888Z,98333.00
2022-09-26T09:13:07.239Z,98337.00
2022-09-26T09:16:35.367Z,98348.00
2022-09-26T09:19:56.002Z,98335.00
2022-09-26T09:23:01.881Z,98327.00
2022-09-26T09:25:56.071Z,98324.00
2022-09-26T09:29:10.384Z,98325.00
2022-09-26T09:31:46.005Z,98334.00
2022-09-26T09:34:42.284Z,98332.00
2022-09-26T09:37:26.597Z,98336.00
2022-09-26T09:39:57.784Z,98336.00
2022-09-26T09:42:50.975Z,98342.00
2022-09-26T09:45:43.180Z,98335.00
2022-09-26T09:48:15.309Z,98339.00
2022-09-26T09:51:38.320Z,98343.00
2022-09-26T09:54:45.769Z,98351.00
2022-09-26T09:58:03.089Z,98346.00
2022-09-26T10:00:42.509Z,98345.00
2022-09-26T10:03:56.374Z,98340.00
2022-09-26T10:06:46.504Z,98345.00
2022-09-26T10:09:40.329Z,98339.00
2022-09-26T10:12:19.267Z,98336.00
2022-09-26T10:15:07.718Z,98338.00
2022-09-26T10:17:37.806Z,98341.00
2022-09-26T10:20:10.610Z,98344.00
2022-09-26T10:22:46.495Z,98345.00
2022-09-26T10:25:27.056Z,98344.00
2022-09-26T10:28:00.204Z,98344.00
2022-09-26T10:30:35.204Z,98340.00
2022-09-26T10:33:05.748Z,98349.00
2022-09-26T10:35:47.997Z,98353.00
2022-09-26T10:38:30.068Z,98370.00
2022-09-26T10:41:04.465Z,98365.00
2022-09-26T10:43:39.223Z,98366.00
2022-09-26T10:52:09.372Z,98364.00
2022-09-26T10:55:05.325Z,98371.00
2022-09-26T10:57:46.375Z,98371.00
2022-09-26T11:00:42.789Z,98382.00
2022-09-26T11:03:25.409Z,98374.00
2022-09-26T11:05:58.079Z,98384.00
2022-09-26T11:08:39.929Z,98381.00
2022-09-26T11:11:17.916Z,98392.00
2022-09-26T11:14:09.503Z,98392.00
2022-09-26T11:16:56.083Z,98401.00
2022-09-26T11:19:58.526Z,98399.00
2022-09-26T11:22:45.845Z,98403.00
2022-09-26T11:25:28.243Z,98413.00
2022-09-26T11:28:23.331Z,98416.00
2022-09-26T11:30:59.921Z,98420.00
2022-09-26T11:33:29.504Z,98415.00
2022-09-26T11:36:47.966Z,98433.00
2022-09-26T11:40:02.305Z,98438.00
2022-09-26T11:43:16.393Z,98448.00
2022-09-26T11:46:32.464Z,98451.00
2022-09-26T11:49:40.823Z,98448.00
2022-09-26T11:52:48.982Z,98459.00
2022-09-26T11:55:56.497Z,98466.00
2022-09-26T11:59:03.333Z,98471.00
2022-09-26T12:02:24.704Z,98473.00
2022-09-26T12:05:28.953Z,98477.00
2022-09-26T12:08:42.296Z,98483.00
2022-09-26T12:11:45.164Z,98488.00
2022-09-26T12:15:03.971Z,98497.00
2022-09-26T12:18:08.479Z,98508.00
2022-09-26T12:21:01.768Z,98513.00
2022-09-26T12:24:17.129Z,98505.00
2022-09-26T12:27:13.742Z,98504.00
2022-09-26T12:30:11.677Z,98517.00
2022-09-26T12:33:17.640Z,98528.00
2022-09-26T12:36:22.533Z,98546.00
2022-09-26T12:39:43.160Z,98555.00
2022-09-26T12:43:01.851Z,98546.00
2022-09-26T12:46:10.902Z,98554.00
2022-09-26T12:49:25.108Z,98556.00
2022-09-26T12:52:27.156Z,98560.00
2022-09-26T12:55:26.222Z,98567.00
2022-09-26T12:58:40.204Z,98565.00
2022-09-26T13:01:50.781Z,98571.00
2022-09-26T13:05:04.801Z,98571.00
2022-09-26T13:08:10.041Z,98576.00
2022-09-26T13:11:24.739Z,98580.00
2022-09-26T13:14:45.632Z,98592.00
2022-09-26T13:17:43.121Z,98595.00
2022-09-26T13:20:47.727Z,98594.00
2022-09-26T13:23:43.134Z,98601.00
2022-09-26T13:26:28.598Z,98607.00
2022-09-26T13:29:17.583Z,98622.00
2022-09-26T13:32:25.349Z,98629.00
2022-09-26T13:35:28.562Z,98630.00
2022-09-26T13:38:31.542Z,98638.00
2022-09-26T13:41:52.251Z,98637.00
2022-09-26T13:45:10.679Z,98639.00
2022-09-26T13:48:11.607Z,98640.00
2022-09-26T13:51:12.859Z,98644.00
2022-09-26T13:54:21.807Z,98656.00
2022-09-26T13:56:57.093Z,98655.00
2022-09-26T13:59:52.682Z,98651.00
2022-09-26T14:05:51.090Z,98659.00
2022-09-26T14:09:12.421Z,98663.00
2022-09-26T14:11:52.518Z,98663.00
2022-09-26T14:14:41.836Z,98661.00
2022-09-26T14:18:19.359Z,98662.00
2022-09-26T14:21:11.776Z,98662.00
2022-09-26T14:24:11.763Z,98666.00
2022-09-26T14:26:46.194Z,98664.00
2022-09-26T14:29:52.300Z,98662.00
2022-09-26T14:32:48.567Z,98679.00
2022-09-26T14:35:40.684Z,98670.00
2022-09-26T14:38:23.028Z,98671.00
2022-09-26T14:41:00.783Z,98668.00
2022-09-26T14:43:32.438Z,98674.00
2022-09-26T14:46:26.417Z,98669.00
2022-09-26T14:49:18.503Z,98662.00
2022-09-26T14:51:51.907Z,98667.00
2022-09-26T14:54:27.868Z,98662.00
2022-09-26T14:57:09.524Z,98670.00
2022-09-26T14:59:44.625Z,98674.00
2022-09-26T15:02:41.898Z,98679.00
2022-09-26T15:05:31.875Z,98685.00
2022-09-26T15:08:02.319Z,98681.00
2022-09-26T15:10:52.058Z,98680.00
2022-09-26T15:13:45.055Z,98678.00
2022-09-26T15:16:43.184Z,98679.00
2022-09-26T15:19:17.297Z,98682.00
2022-09-26T15:22:00.198Z,98678.00
2022-09-26T15:24:36.516Z,98681.00
2022-09-26T15:27:28.549Z,98681.00
2022-09-26T15:30:18.721Z,98682.00
2022-09-26T15:32:50.186Z,98673.00
2022-09-26T15:35:22.986Z,98675.00
2022-09-26T15:37:55.070Z,98672.00
2022-09-26T15:40:34.320Z,98673.00
2022-09-26T15:43:25.047Z,98684.00
2022-09-26T15:46:09.059Z,98690.00
2022-09-26T15:48:51.689Z,98690.00
2022-09-26T15:51:37.506Z,98697.00
2022-09-26T15:54:20.337Z,98704.00
2022-09-26T15:56:53.527Z,98703.00
2022-09-26T15:59:40.955Z,98713.00
2022-09-26T16:02:33.776Z,98712.00
2022-09-26T16:05:08.528Z,98712.00
2022-09-26T16:07:42.720Z,98712.00
2022-09-26T16:10:35.130Z,98721.00
2022-09-26T16:13:17.694Z,98714.00
2022-09-26T16:15:47.043Z,98711.00
2022-09-26T16:18:28.219Z,98710.00
2022-09-26T16:21:40.286Z,98711.00
2022-09-26T16:24:35.496Z,98712.00
2022-09-26T16:27:24.114Z,98706.00
2022-09-26T16:29:54.665Z,98695.00
2022-09-26T16:32:25.633Z,98693.00
2022-09-26T16:34:55.048Z,98692.00
2022-09-26T16:37:24.699Z,98686.00
2022-09-26T16:40:00.659Z,98684.00
2022-09-26T16:42:33.888Z,98675.00
2022-09-26T16:45:06.999Z,98665.00
2022-09-26T16:47:52.626Z,98661.00
2022-09-26T16:50:39.223Z,98656.00
2022-09-26T16:53:17.389Z,98650.00
2022-09-26T16:55:47.106Z,98640.00
2022-09-26T16:58:18.017Z,98639.00
2022-09-26T17:01:05.478Z,98628.00
2022-09-26T17:03:35.988Z,98621.00
2022-09-26T17:06:10.958Z,98611.00
2022-09-26T17:08:40.361Z,98607.00
2022-09-26T17:11:16.833Z,98601.00
2022-09-26T17:13:46.841Z,98605.00
2022-09-26T17:16:16.374Z,98587.00
2022-09-26T17:18:45.799Z,98595.00
2022-09-26T17:21:15.091Z,98591.00
2022-09-26T17:23:44.438Z,98582.00
2022-09-26T17:26:24.976Z,98581.00
2022-09-26T17:28:55.862Z,98573.00
2022-09-26T17:31:25.310Z,98567.00
2022-09-26T17:33:56.150Z,98563.00
2022-09-26T17:36:29.532Z,98551.00
2022-09-26T17:39:03.548Z,98550.00
2022-09-26T17:41:38.838Z,98540.00
2022-09-26T17:44:08.087Z,98531.00
2022-09-26T17:46:40.402Z,98539.00
2022-09-26T17:49:23.765Z,98536.00
2022-09-26T17:51:59.365Z,98530.00
2022-09-26T17:54:43.631Z,98518.00
2022-09-26T17:57:18.191Z,98520.00
2022-09-26T17:59:47.676Z,98509.00
2022-09-26T18:02:43.543Z,98505.00
2022-09-26T18:05:33.480Z,98502.00
2022-09-26T18:08:30.613Z,98494.00
2022-09-26T18:11:08.850Z,98492.00
2022-09-26T18:13:43.627Z,98496.00
2022-09-26T18:16:14.130Z,98489.00
2022-09-26T18:18:43.516Z,98486.00
2022-09-26T18:21:21.242Z,98486.00
2022-09-26T18:24:03.249Z,98474.00
2022-09-26T18:26:48.339Z,98479.00
2022-09-26T18:29:34.306Z,98470.00
2022-09-26T18:32:06.733Z,98464.00
2022-09-26T18:34:39.269Z,98457.00
2022-09-26T18:37:09.690Z,98461.00
2022-09-26T18:39:38.893Z,98453.00
2022-09-26T18:42:12.993Z,98460.00
2022-09-26T18:44:47.675Z,98452.00
2022-09-26T18:47:19.159Z,98453.00
2022-09-26T18:49:49.010Z,98443.00
2022-09-26T18:52:20.131Z,98442.00
2022-09-26T18:55:09.051Z,98444.00
2022-09-26T18:57:50.569Z,98439.00
2022-09-26T19:00:20.543Z,98432.00
2022-09-26T19:02:58.109Z,98428.00
2022-09-26T19:05:31.143Z,98427.00
2022-09-26T19:08:37.703Z,98419.00
2022-09-26T19:11:18.931Z,98415.00
2022-09-26T19:13:56.325Z,98408.00
2022-09-26T19:16:26.757Z,98403.00
2022-09-26T19:18:56.091Z,98401.00
2022-09-26T19:21:57.740Z,98403.00
2022-09-26T19:24:52.713Z,98393.00
2022-09-26T19:27:55.352Z,98397.00
2022-09-26T19:30:25.079Z,98392.00
2022-09-26T19:32:58.318Z,98399.00
2022-09-26T19:35:35.357Z,98402.00
2022-09-26T19:38:27.752Z,98410.00
2022-09-26T19:40:59.852Z,98410.00
2022-09-26T19:43:29.130Z,98406.00
2022-09-26T19:45:58.640Z,98401.00
2022-09-26T19:48:36.334Z,98405.00
2022-09-26T19:51:19.437Z,98399.00
2022-09-26T19:53:48.723Z,98390.00
2022-09-26T19:56:18.885Z,98391.00
2022-09-26T19:58:49.645Z,98382.00
2022-09-26T20:01:23.817Z,98382.00
2022-09-26T20:03:53.304Z,98380.00
2022-09-26T20:06:26.704Z,98375.00
2022-09-26T20:09:01.579Z,98373.00
2022-09-26T20:11:31.344Z,98370.00
2022-09-26T20:14:12.899Z,98384.00
2022-09-26T20:16:45.681Z,98376.00
2022-09-26T20:19:29.032Z,98375.00
2022-09-26T20:22:02.947Z,98380.00
2022-09-26T20:24:38.277Z,98380.00
2022-09-26T20:27:12.291Z,98382.00
2022-09-26T20:29:53.885Z,98383.00
2022-09-26T20:32:23.354Z,98387.00
2022-09-26T20:34:52.617Z,98388.00
2022-09-26T20:37:22.842Z,98382.00
2022-09-26T20:39:56.850Z,98385.00
2022-09-26T20:42:29.139Z,98379.00
2022-09-26T20:45:01.482Z,98374.00
2022-09-26T20:47:31.176Z,98378.00
2022-09-26T20:50:04.700Z,98378.00
2022-09-26T20:52:34.152Z,98375.00
2022-09-26T20:55:03.464Z,98378.00
2022-09-26T20:57:32.741Z,98373.00
2022-09-26T21:00:02.011Z,98370.00
2022-09-26T21:02:41.863Z,98384.00
2022-09-26T21:05:31.002Z,98378.00
2022-09-26T21:08:26.666Z,98372.00
2022-09-26T21:11:00.740Z,98378.00
2022-09-26T21:13:29.981Z,98378.00
2022-09-26T21:15:59.222Z,98382.00
2022-09-26T21:18:31.894Z,98378.00
2022-09-26T21:21:17.041Z,98381.00
2022-09-26T21:23:46.809Z,98377.00
2022-09-26T21:26:25.844Z,98381.00
2022-09-26T21:28:57.507Z,98385.00
2022-09-26T21:31:36.653Z,98377.00
2022-09-26T21:34:13.717Z,98390.00
2022-09-26T21:36:43.067Z,98374.00
2022-09-26T21:39:13.080Z,98379.00
2022-09-26T21:41:42.557Z,98383.00
2022-09-26T21:44:28.010Z,98382.00
2022-09-26T21:47:00.261Z,98383.00
2022-09-26T21:49:29.537Z,98380.00
2022-09-26T21:52:51.365Z,98387.00
2022-09-26T21:55:36.735Z,98392.00
2022-09-26T21:58:14.049Z,98397.00
2022-09-26T22:00:43.426Z,98398.00
2022-09-26T22:03:15.779Z,98392.00
2022-09-26T22:05:45.177Z,98394.00
2022-09-26T22:08:14.445Z,98393.00
2022-09-26T22:10:43.835Z,98398.00
2022-09-26T22:13:13.082Z,98403.00
2022-09-26T22:15:42.318Z,98409.00
2022-09-26T22:18:12.221Z,98414.00
2022-09-26T22:20:41.642Z,98413.00
2022-09-26T22:23:10.918Z,98424.00
2022-09-26T22:25:42.930Z,98415.00
2022-09-26T22:28:12.502Z,98417.00
2022-09-26T22:30:42.077Z,98429.00
2022-09-26T22:33:12.459Z,98435.00
2022-09-26T22:35:42.051Z,98428.00
2022-09-26T22:38:16.973Z,98423.00
2022-09-26T22:40:56.828Z,98425.00
2022-09-26T22:43:28.514Z,98425.00
2022-09-26T22:46:07.854Z,98432.00
2022-09-26T22:48:41.236Z,98441.00
2022-09-26T22:51:11.527Z,98445.00
2022-09-26T22:53:42.779Z,98449.00
2022-09-26T22:56:16.290Z,98451.00
2022-09-26T22:58:49.286Z,98455.00
2022-09-26T23:01:24.744Z,98455.00
2022-09-26T23:03:54.965Z,98461.00
2022-09-26T23:06:28.464Z,98456.00
2022-09-26T23:08:58.689Z,98449.00
2022-09-26T23:11:29.060Z,98456.00
2022-09-26T23:14:01.400Z,98459.00
2022-09-26T23:16:30.863Z,98458.00
2022-09-26T23:19:09.175Z,98467.00
2022-09-26T23:21:41.342Z,98468.00
2022-09-26T23:24:10.833Z,98464.00
2022-09-26T23:26:40.259Z,98469.00
2022-09-26T23:29:10.710Z,98464.00
2022-09-26T23:31:40.115Z,98465.00
2022-09-26T23:34:09.589Z,98467.00
2022-09-26T23:36:38.935Z,98474.00
2022-09-26T23:39:08.484Z,98481.00
2022-09-26T23:41:40.662Z,98485.00
2022-09-26T23:44:09.910Z,98493.00
2022-09-26T23:46:39.555Z,98492.00
2022-09-26T23:49:08.996Z,98496.00
2022-09-26T23:51:38.238Z,98494.00
2022-09-26T23:54:07.714Z,98497.00
2022-09-26T23:56:37.297Z,98493.00
2022-09-26T23:59:06.606Z,98505.00
